AirNav   Pilot Hours Calculator
 
 632 users online  

2NJ7 Foley Machinery Heliport
Piscataway, New Jersey, USA

GOING TO PISCATAWAY?


FAA INFORMATION EFFECTIVE 07 NOVEMBER 2019

Location

FAA Identifier: 2NJ7
Lat/Long: 40-33-00.3720N 074-29-15.5530W
40-33.006200N 074-29.259217W
40.5501033,-74.4876536
(estimated)
Elevation: 200 ft. / 61 m (estimated)
Variation: 12W (1985)
From city: 3 miles SW of PISCATAWAY, NJ
Time zone: UTC -5 (UTC -4 during Daylight Saving Time)
Zip code: 08854

Heliport Operations

Heliport use: Private use. Permission required prior to landing
Activation date: 08/1961
Control tower: no
ARTCC: NEW YORK CENTER
FSS: MILLVILLE FLIGHT SERVICE STATION
Attendance: UNATNDD
Wind indicator: yes
Segmented circle: no

Heliport Communications

WX ASOS at SMQ (9 nm NW): 120.6 (908-722-2139)
WX AWOS-3 at LDJ (12 nm E): 124.025 (908-862-7383)
WX AWOS-3 at MMU (15 nm N): PHONE 973-290-0135
WX ASOS at EWR (17 nm NE): PHONE 973-621-2892

Nearby radio navigation aids

VOR radial/distance  VOR name  Freq  Var
SBJr110/11.8SOLBERG VOR/DME112.9010W
COLr325/20.7COLTS NECK VOR/DME115.4011W
RBVr011/20.9ROBBINSVILLE VORTAC113.8010W
BWZr145/21.3BROADWAY VOR/DME114.2011W
ARDr057/26.2YARDLEY VOR/DME108.2010W
TEBr238/26.4TETERBORO VOR/DME108.4011W
CRIr273/27.3CANARSIE VOR/DME112.3011W
SAXr187/31.1SPARTA VORTAC115.7011W
LGAr256/31.5LA GUARDIA VOR/DME113.1012W
STWr158/31.9STILLWATER VOR/DME109.6011W
GXUr021/32.8MC GUIRE VORTAC110.6012W
JFKr273/33.0KENNEDY VOR/DME115.9012W

 
NDB name  Hdg/Dist  Freq  Var  ID
CHATHAM206/11.725413WCAT -.-. .- -
LAKEHURST358/31.139611WNEL -. . .-..

Heliport Services

Airframe service: NONE
Powerplant service: NONE

Runway Information

Helipad H1

Dimensions: 100 x 100 ft. / 30 x 30 m
Surface: turf, in fair condition
Latitude: 40-33.006200N
Longitude: 074-29.259217W
Elevation: 200.0 ft.
Traffic pattern: leftleft
Markings: none, in fair condition

Heliport Ownership and Management from official FAA records

Ownership: Privately-owned
Owner: FOLEY MACHINERY CO.
855 CENTENNIAL AVE.
PISCATAWAY, NJ 08854
Phone (732) 885-5555
Manager: JOHN KOPCEUCH
855 CENTENNIAL AVE.
PISCATAWAY, NJ 08854
Phone (732) 885-3249

Additional Remarks

FOR CD CTC NEW YORK APCH AT 800-645-3206.

Instrument Procedures

There are no published instrument procedures at 2NJ7.

Some nearby airports with instrument procedures:

47N - Central Jersey Regional Airport (5 nm W)
KSMQ - Somerset Airport (9 nm NW)
N51 - Solberg-Hunterdon Airport (12 nm W)
KLDJ - Linden Airport (12 nm E)
39N - Princeton Airport (12 nm SW)
3N6 - Old Bridge Airport (15 nm SE)
KMMU - Morristown Municipal Airport (15 nm N)
KEWR - Newark Liberty International Airport (17 nm NE)
 
Loc | Ops | Rwys | IFR | FBO | Links
Com | Nav | Svcs | Stats | Notes
Area around 2NJ7 (Foley Machinery Heliport)
 
Road maps at: MapQuest Bing Google
 
Aerial photo
No photo
 
Sectional chart

 
Airport distance calculator
Flying to Foley Machinery Heliport? Find the distance to fly.

From to 2NJ7

Sunrise and sunset
Times for 19-Nov-2019
 Local
(UTC-5)
 Zulu
(UTC)
Morning civil twilight06:2011:20
Sunrise06:5011:50
Sunset16:3721:37
Evening civil twilight17:0622:06

Current date and time
Zulu (UTC)  19-Nov-2019 05:16:04
Local (UTC-5)  19-Nov-2019 00:16:04
 
METAR
KSMQ 
9nm NW 
ASOS 120.60 908-722-2139
190453Z AUTO 00000KT 10SM OVC019 05/04 A2971 RMK AO2 SLP061 T00500039 400610033 $
KLDJ 
12nm E 
190455Z AUTO 00000KT 5SM HZ OVC010 A2971 RMK AO2
KMMU 
14nm N 
190455Z AUTO 00000KT 3SM -DZ OVC012 04/04 A2970 RMK AO2
KEWR 
17nm NE 
190451Z 00000KT 8SM -RA BKN006 OVC011 06/04 A2971 RMK AO2 SLP059 P0002 T00560044 400610028 $
TAF
KEWR 
17nm NE 
190220Z 1902/2006 34006KT 3SM RA BR OVC007 FM190600 30005KT 4SM -RA BR OVC009 FM190900 27006KT 6SM BR SCT009 OVC015 FM191300 28007KT P6SM SCT030 FM200000 32007KT P6SM BKN035 BKN150
NOTAMs
Click for the latest NOTAMs
NOTAMs are issued by the DoD/FAA and will open in a separate window not controlled by AirNav.

 

 
 

Would you like to see your business listed on this page?

 If your business provides an interesting product or service to pilots, flight crews, aircraft, or users of the Foley Machinery Heliport, you should consider listing it here.  To start the listing process, click on the button below
 
Add a business
 

Other Pages about Foley Machinery Heliport

Update a link
 
Copyright © AirNav, LLC. All rights reserved. Privacy Policy  Contact